Airfield :
LOGIN :

Register | Disclaimer

   EN    FR    IT 

 










Legend :    VFR   Marginal VFR   IFR   Intensive IFR   Very Intensive IFR
Visi :
Ceiling :
>= 8 km
>= 3000ft
5 to 8 km
1000 to 3000 ft
1500m to 5 km
500 to 1000 ft
800 to 1500m
200 to 500 ft
< 800m
< 200 ft
Symbols :   Thunderstorms  Fog  Heavy snow  Heavy precipitations  Wind > 20 kt
SIGMETs :     Misc.  Thunderstorms  Icing  Turbulence  Mountain Waves  Volcanic Ashes






- Airport Elevation : 1079 ft


ETIK - Illesheim Air Base

CURRENT METAR :
  • 261756Z AUTO 36005KT 9999 CLR 16/05 A3054 RMK AO2 SLP344 T01640051 10181 20161 55001 $

EXPIRED METARs :
  • 261656Z AUTO 03007KT 9999 CLR 17/06 A3054 RMK AO2 SLP345 T01740060
  • 261556Z AUTO 06003KT 9999 CLR 18/05 A3053 RMK AO2 SLP342 T01780050 $

TAF TAF ETIK
Valid from the 26 at 14:00 until the 27 at 20:00 UTC


261359Z 2614/2720 VRB06KT 9999 SCT040 BKN050 QNH3056INS
BECMG 2623/2624 VRB06KT 9999 SCT050 QNH3046INS
BECMG 2717/2718 VRB06KT 9999 BKN040 QNH3046INS TX20/2712Z TN05/2704Z



MET'MAP, your aeronautical weather chart ! - Copyright ORBIFLY December 2007 - Disclaimer

ORBIFLY MET'MAP TEAM :

Programming & Development : Alexandra Zaïnal
Concept & original design : Baudouin d'Aumeries
Assistance for programming : Marc-Olivier Méhu
Technical & hardware support : Manuel Goepfert

Contact : metmap@orbifly.com




SOURCES & CREDITS :

   NOAA